This is the latest recevied weather packets stored in our database for station/object SP5IZJ-2. If no packets are shown the sender has not sent any weather packets the latest 10 day(s).
| Time | Temp. | Humidity | Pressure | Rain* | Wind** | Luminosity | Snow |
|---|---|---|---|---|---|---|---|
| 1777319634 | 6.67° C | 45% | 1014.6 hPa | 0 mm | - | - | - |
| 1777318798 | 6.67° C | 46% | 1014.4 hPa | 0 mm | - | - | - |
| 1777318374 | 6.67° C | 46% | 1014.3 hPa | 0 mm | - | - | - |
| 1777317954 | 6.67° C | 47% | 1014.5 hPa | 0 mm | - | - | - |
| 1777317115 | 6.11° C | 49% | 1014.1 hPa | 0 mm | - | - | - |
| 1777316699 | 5.56° C | 50% | 1014.1 hPa | 0 mm | - | - | - |
| 1777315900 | 6.11° C | 47% | 1014 hPa | 0 mm | - | - | - |
| 1777315480 | 6.67° C | 46% | 1013.9 hPa | 0 mm | - | - | - |
| 1777315060 | 7.22° C | 45% | 1013.9 hPa | 0 mm | - | - | - |
| 1777314647 | - | - | - | - | - | - | - |
| 1777314641 | 7.78° C | 44% | 1013.8 hPa | 0 mm | - | - | - |
| 1777313801 | 8.33° C | 42% | 1013.6 hPa | 0 mm | - | - | - |
| 1777313381 | 8.33° C | 42% | 1013.4 hPa | 0 mm | - | - | - |
| 1777312961 | 8.33° C | 41% | 1013.4 hPa | 0 mm | - | - | - |
| 1777312497 | 8.89° C | 40% | 1013.3 hPa | 0 mm | - | - | - |
| 1777312084 | 9.44° C | 40% | 1013.3 hPa | 0 mm | - | - | - |
| 1777311237 | 10° C | 38% | 1013.2 hPa | 0 mm | - | - | - |
| 1777310817 | 10.56° C | 38% | 1013.2 hPa | 0 mm | - | - | - |
| 1777310398 | 10.56° C | 37% | 1013.2 hPa | 0 mm | - | - | - |
| 1777309138 | 11.67° C | 36% | 1013.2 hPa | 0 mm | - | - | - |
| 1777308718 | 11.67° C | 36% | 1013.1 hPa | 0 mm | - | - | - |
| 1777308298 | 11.67° C | 36% | 1013 hPa | 0 mm | - | - | - |
| 1777307459 | 11.11° C | 36% | 1013.1 hPa | 0 mm | - | - | - |
| 1777307039 | 11.67° C | 35% | 1013 hPa | 0 mm | - | - | - |
| 1777306619 | 11.67° C | 34% | 1013.2 hPa | 0 mm | - | - | - |
* Rain latest hour (hover to see other rain measurements)
** Current wind speed in m/s (hover to see current wind gust speed)